Opglabbeek, Belgium
Current Conditions -  °F | °C
As of 5:25 PM on Thursday 29 Jan 2015 (Local Time) from EBBL Reporting Station
Broken Clouds Broken Clouds  
Wind Chill: 31°   Ceiling: 3200
Heat Index: 39°   Visibility: 6mi
Dew Point: 34°   Wind: 14mph
Humidity: 81%   Direction: 220°SW
Pressure: 28.88"   Gusts: NA
Location:  51.04°N, 5.58°E
Report Text: EBBL 291625Z 22012KT 9999 FEW016 SCT022 BKN032 04/01 Q0978 WHT
Loading
Personal Weather Stations






























Interactive Weather Map New forecast layout! Learn more

10-Day Weather Forecast

Advertisements
Track Severe Weather on mobile